Columbia — WYR2092 — position and weather

sailwx.info

Track history (hours):
 
Tides and Currents Weather Stations Pressure Air Temp Water Temp Dewpoint Dewpoint Depression Visibility Wind Speed Wind Dir Waves Ship Positions

Columbia

Owner: ALASKA, STATE OF, ANCHORAGE, AK. More information available from US FCC via Universal Licensing System and Coast Guard Vessel Documentation Center.

Last reported at 2019-Mar-22 12:00 UTC. Time now 2019-Mar-22 12:27 UTC.
Position N 48°52' W 123°05'.

Type: Passenger vessel. MMSI: 367144000.

Date/timePositionNaut miles runAvg speedWind from/ knotsBaromVisibWave heightAir tempDewpointWater temp
2019-Mar-22 12:00N 48°52' W 123°05'713.8
2019-Mar-22 11:30N 48°56' W 123°13'713.8
2019-Mar-22 11:00N 49°01' W 123°21'713.7
2019-Mar-22 10:30N 49°06' W 123°27'713.7
2019-Mar-22 10:00N 49°12' W 123°34'713.7
2019-Mar-22 09:30N 49°16' W 123°42'713.3
2019-Mar-22 09:00N 49°22' W 123°47'612.3
2019-Mar-22 08:30N 49°23' W 123°56'713.1
2019-Mar-22 08:00N 49°24' W 124°06'713.3
2019-Mar-22 07:30N 49°25' W 124°16'712.8
2019-Mar-22 06:56N 49°29' W 124°25'613.2
2019-Mar-22 06:30N 49°33' W 124°31'713.2
2019-Mar-22 06:00N 49°38' W 124°39'713.2
2019-Mar-22 05:30N 49°43' W 124°46'713.2
2019-Mar-22 05:00N 49°47' W 124°53'713.2
2019-Mar-22 04:30N 49°52' W 125°00'612.7
2019-Mar-22 04:00N 49°56' W 125°07'612.2
2019-Mar-22 03:30N 50°01' W 125°13'4 7.3
2019-Mar-22 03:00N 50°04' W 125°16'5 9.7
2019-Mar-22 02:30N 50°08' W 125°21'815.3
2019-Mar-22 01:59N 50°16' W 125°24'714.3
2019-Mar-22 01:28N 50°21' W 125°32'1015.9
2019-Mar-22 00:52N 50°22' W 125°46'7616.2
2019-Mar-21 20:11N 50°59' W 127°32'715.9
2019-Mar-21 19:44N 51°03' W 127°40'416.3
2019-Mar-21 19:30N 51°06' W 127°45'816.5
2019-Mar-21 19:00N 51°13' W 127°52'816.2
2019-Mar-21 18:30N 51°21' W 127°55'815.4
2019-Mar-21 18:00N 51°28' W 127°52'816.5
2019-Mar-21 17:30N 51°36' W 127°54'816.2
2019-Mar-21 17:00N 51°44' W 127°56'816.5
2019-Mar-21 16:30N 51°52' W 127°56'816.9
2019-Mar-21 16:00N 52°01' W 127°56'612.8
2019-Mar-21 15:30N 52°05' W 128°04'510.4
2019-Mar-21 15:00N 52°09' W 128°08'2 4.9
2019-Mar-21 14:30N 52°12' W 128°06'816.1
2019-Mar-21 14:01N 52°15' W 128°18'913.3
2019-Mar-21 13:21N 52°18' W 128°32'616.0
2019-Mar-21 13:00N 52°24' W 128°31'8914.1
2019-Mar-21 06:38N 53°41' W 129°47'616.2
2019-Mar-21 06:15N 53°45' W 129°53'416.5
2019-Mar-21 06:00N 53°48' W 129°58'816.4
2019-Mar-21 05:30N 53°54' W 130°08'815.8
2019-Mar-21 05:00N 54°01' W 130°14'816.2
2019-Mar-21 04:30N 54°07' W 130°23'816.5
2019-Mar-21 04:01N 54°14' W 130°30'816.5
2019-Mar-21 03:30N 54°22' W 130°36'917.3
2019-Mar-21 03:01N 54°30' W 130°39'817.0
2019-Mar-21 02:31N 54°38' W 130°44'816.9
2019-Mar-21 02:00N 54°45' W 130°54'1217.2
2019-Mar-21 01:19N 54°56' W 131°01'199 6.0
2019-Mar-19 16:00N 57°30' W 134°48'   1014.9 5.4 5.6
2019-Mar-17 10:49N 54°43' W 130°52'814.8
2019-Mar-17 10:15N 54°37' W 130°43'414.5
2019-Mar-17 10:00N 54°34' W 130°40'715.0
2019-Mar-17 09:30N 54°26' W 130°38'510.7
2019-Mar-17 09:00N 54°21' W 130°36'714.8
2019-Mar-17 08:30N 54°14' W 130°31'715.0
2019-Mar-17 08:00N 54°08' W 130°24'815.4
2019-Mar-17 07:30N 54°03' W 130°14'815.7
2019-Mar-17 07:00N 53°55' W 130°11'714.8
2019-Mar-17 06:30N 53°51' W 130°02'815.0
2019-Mar-17 05:57N 53°45' W 129°52'9413.6
2019-Mar-16 23:01N 52°24' W 128°29'015.5
2019-Mar-16 23:00N 52°24' W 128°29'815.8
2019-Mar-16 22:30N 52°17' W 128°33'713.1
2019-Mar-16 21:57N 52°15' W 128°21'716.6
2019-Mar-16 21:30N 52°13' W 128°10'4 8.5
2019-Mar-16 21:00N 52°09' W 128°08'510.0
2019-Mar-16 20:31N 52°05' W 128°05'713.5
2019-Mar-16 20:00N 52°01' W 127°56'510.7
2019-Mar-16 19:30N 51°55' W 127°56'5 9.2
2019-Mar-16 19:00N 51°51' W 127°55'510.4
2019-Mar-16 18:30N 51°46' W 127°55'816.1
2019-Mar-16 18:00N 51°38' W 127°53'816.8
2019-Mar-16 17:30N 51°29' W 127°51'816.7
2019-Mar-16 17:00N 51°21' W 127°52'816.6
2019-Mar-16 16:30N 51°13' W 127°52'917.0
2019-Mar-16 16:00N 51°06' W 127°43'917.1
2019-Mar-16 15:30N 50°59' W 127°35'816.8
2019-Mar-16 15:00N 50°55' W 127°24'917.2
2019-Mar-16 14:30N 50°50' W 127°12'917.3
2019-Mar-16 14:00N 50°45' W 127°01'5217.4
2019-Mar-16 11:00N 50°23' W 125°47'1119.5
2019-Mar-16 10:26N 50°21' W 125°30'717.0
2019-Mar-16 10:00N 50°15' W 125°23'917.7
2019-Mar-16 09:30N 50°06' W 125°18'612.7
2019-Mar-16 09:01N 50°01' W 125°13'815.7
2019-Mar-16 08:30N 49°55' W 125°05'918.6
2019-Mar-16 08:00N 49°48' W 124°55'918.7
2019-Mar-16 07:30N 49°42' W 124°45'918.5
2019-Mar-16 07:00N 49°35' W 124°35'918.6
2019-Mar-16 06:30N 49°29' W 124°24'918.2
2019-Mar-16 06:00N 49°24' W 124°12'918.4
2019-Mar-16 05:30N 49°24' W 123°58'917.9
2019-Mar-16 05:00N 49°19' W 123°46'918.5
2019-Mar-16 04:30N 49°13' W 123°35'918.8
2019-Mar-16 04:00N 49°07' W 123°25'918.6
2019-Mar-16 03:30N 49°01' W 123°14'918.1
2019-Mar-16 03:00N 48°55' W 123°04'917.9
2019-Mar-16 02:30N 48°49' W 122°54'917.5
2019-Mar-16 02:00N 48°43' W 122°44'815.2
2019-Mar-16 01:30N 48°39' W 122°34'5 8.5
2019-Mar-16 00:54N 48°43' W 122°31'0 0.0
2019-Mar-16 00:00N 48°43' W 122°31'0 0.0
2019-Mar-15 22:54N 48°43' W 122°31'0 0.0
2019-Mar-15 22:18N 48°43' W 122°31'0 0.0
2019-Mar-15 14:40N 48°43' W 122°31'0 1.5
2019-Mar-15 14:26N 48°44' W 122°31'511.3
2019-Mar-15 14:00N 48°39' W 122°34'510.2
2019-Mar-15 13:31N 48°40' W 122°42'713.3
2019-Mar-15 13:00N 48°45' W 122°48'713.9
2019-Mar-15 12:30N 48°48' W 122°57'714.1
2019-Mar-15 12:00N 48°52' W 123°06'714.2
2019-Mar-15 11:31N 48°57' W 123°14'714.2
2019-Mar-15 11:00N 49°02' W 123°22'714.0
2019-Mar-15 10:30N 49°07' W 123°29'714.1
2019-Mar-15 10:00N 49°12' W 123°36'714.0
2019-Mar-15 09:30N 49°18' W 123°43'713.5
2019-Mar-15 09:00N 49°22' W 123°51'714.0
2019-Mar-15 08:30N 49°23' W 124°02'714.2
2019-Mar-15 08:00N 49°25' W 124°12'711.5
2019-Mar-15 07:24N 49°28' W 124°22'510.8
2019-Mar-15 06:57N 49°31' W 124°28'511.0
2019-Mar-15 06:29N 49°34' W 124°33'511.1
2019-Mar-15 06:00N 49°38' W 124°39'611.0
2019-Mar-15 05:30N 49°42' W 124°45'510.9
2019-Mar-15 05:01N 49°46' W 124°51'611.0
2019-Mar-15 04:30N 49°50' W 124°57'611.0
2019-Mar-15 04:00N 49°53' W 125°04'510.8
2019-Mar-15 03:30N 49°57' W 125°09'715.0
2019-Mar-15 03:00N 50°04' W 125°15'917.6
2019-Mar-15 02:30N 50°11' W 125°22'918.5
2019-Mar-15 02:00N 50°20' W 125°27'3917.6
2019-Mar-14 23:47N 50°30' W 126°26'1215.2
2019-Mar-14 22:58N 50°36' W 126°43'1118.0
2019-Mar-14 22:23N 50°42' W 126°56'718.1
2019-Mar-14 22:00N 50°47' W 127°04'918.0
2019-Mar-14 21:30N 50°52' W 127°16'917.5
2019-Mar-14 21:00N 50°56' W 127°27'816.4
2019-Mar-14 20:30N 51°02' W 127°37'916.9
2019-Mar-14 20:00N 51°07' W 127°49'713.9
2019-Mar-14 19:30N 51°11' W 127°57'917.3
2019-Mar-14 19:01N 51°19' W 127°51'917.4
2019-Mar-14 18:30N 51°28' W 127°50'918.1
2019-Mar-14 18:00N 51°37' W 127°53'918.0
2019-Mar-14 17:30N 51°46' W 127°55'918.0
2019-Mar-14 17:00N 51°55' W 127°56'918.0
2019-Mar-14 16:30N 52°03' W 127°56'816.1
2019-Mar-14 16:00N 52°07' W 128°08'5 8.6
2019-Mar-14 15:27N 52°11' W 128°06'1516.8
2019-Mar-14 14:35N 52°15' W 128°30'116.0
2019-Mar-14 14:30N 52°14' W 128°31'9914.7
2019-Mar-14 07:46N 53°42' W 129°48'518.1
2019-Mar-14 07:30N 53°45' W 129°53'917.8
2019-Mar-14 07:00N 53°52' W 130°04'816.7
2019-Mar-14 06:31N 53°58' W 130°13'816.7
2019-Mar-14 06:01N 54°05' W 130°20'917.6
2019-Mar-14 05:31N 54°13' W 130°29'917.1
2019-Mar-14 05:01N 54°20' W 130°36'917.6
2019-Mar-14 04:30N 54°28' W 130°40'917.8
2019-Mar-14 04:00N 54°37' W 130°44'816.7
2019-Mar-14 03:30N 54°43' W 130°55'  
Track history (hours):
 
Tides and Currents Weather Stations Pressure Air Temp Water Temp Dewpoint Dewpoint Depression Visibility Wind Speed Wind Dir Waves Ship Positions

Columbia

Owner: ALASKA, STATE OF, ANCHORAGE, AK. More information available from US FCC via Universal Licensing System and Coast Guard Vessel Documentation Center.

Last reported at 2019-Mar-22 12:00 UTC. Time now 2019-Mar-22 12:27 UTC.
Position N 48°52' W 123°05'.

Type: Passenger vessel. MMSI: 367144000.

Date/timePositionNaut miles runAvg speedWind from/ knotsBaromVisibWave heightAir tempDewpointWater temp
2019-Mar-22 12:00N 48°52' W 123°05'713.8
2019-Mar-22 11:30N 48°56' W 123°13'713.8
2019-Mar-22 11:00N 49°01' W 123°21'713.7
2019-Mar-22 10:30N 49°06' W 123°27'713.7
2019-Mar-22 10:00N 49°12' W 123°34'713.7
2019-Mar-22 09:30N 49°16' W 123°42'713.3
2019-Mar-22 09:00N 49°22' W 123°47'612.3
2019-Mar-22 08:30N 49°23' W 123°56'713.1
2019-Mar-22 08:00N 49°24' W 124°06'713.3
2019-Mar-22 07:30N 49°25' W 124°16'712.8
2019-Mar-22 06:56N 49°29' W 124°25'613.2
2019-Mar-22 06:30N 49°33' W 124°31'713.2
2019-Mar-22 06:00N 49°38' W 124°39'713.2
2019-Mar-22 05:30N 49°43' W 124°46'713.2
2019-Mar-22 05:00N 49°47' W 124°53'713.2
2019-Mar-22 04:30N 49°52' W 125°00'612.7
2019-Mar-22 04:00N 49°56' W 125°07'612.2
2019-Mar-22 03:30N 50°01' W 125°13'4 7.3
2019-Mar-22 03:00N 50°04' W 125°16'5 9.7
2019-Mar-22 02:30N 50°08' W 125°21'815.3
2019-Mar-22 01:59N 50°16' W 125°24'714.3
2019-Mar-22 01:28N 50°21' W 125°32'1015.9
2019-Mar-22 00:52N 50°22' W 125°46'7616.2
2019-Mar-21 20:11N 50°59' W 127°32'715.9
2019-Mar-21 19:44N 51°03' W 127°40'416.3
2019-Mar-21 19:30N 51°06' W 127°45'816.5
2019-Mar-21 19:00N 51°13' W 127°52'816.2
2019-Mar-21 18:30N 51°21' W 127°55'815.4
2019-Mar-21 18:00N 51°28' W 127°52'816.5
2019-Mar-21 17:30N 51°36' W 127°54'816.2
2019-Mar-21 17:00N 51°44' W 127°56'816.5
2019-Mar-21 16:30N 51°52' W 127°56'816.9
2019-Mar-21 16:00N 52°01' W 127°56'612.8
2019-Mar-21 15:30N 52°05' W 128°04'510.4
2019-Mar-21 15:00N 52°09' W 128°08'2 4.9
2019-Mar-21 14:30N 52°12' W 128°06'816.1
2019-Mar-21 14:01N 52°15' W 128°18'913.3
2019-Mar-21 13:21N 52°18' W 128°32'616.0
2019-Mar-21 13:00N 52°24' W 128°31'8914.1
2019-Mar-21 06:38N 53°41' W 129°47'616.2
2019-Mar-21 06:15N 53°45' W 129°53'416.5
2019-Mar-21 06:00N 53°48' W 129°58'816.4
2019-Mar-21 05:30N 53°54' W 130°08'815.8
2019-Mar-21 05:00N 54°01' W 130°14'816.2
2019-Mar-21 04:30N 54°07' W 130°23'816.5
2019-Mar-21 04:01N 54°14' W 130°30'816.5
2019-Mar-21 03:30N 54°22' W 130°36'917.3
2019-Mar-21 03:01N 54°30' W 130°39'817.0
2019-Mar-21 02:31N 54°38' W 130°44'816.9
2019-Mar-21 02:00N 54°45' W 130°54'1217.2
2019-Mar-21 01:19N 54°56' W 131°01'199 6.0
2019-Mar-19 16:00N 57°30' W 134°48'   1014.9 5.4 5.6
2019-Mar-17 10:49N 54°43' W 130°52'814.8
2019-Mar-17 10:15N 54°37' W 130°43'414.5
2019-Mar-17 10:00N 54°34' W 130°40'715.0
2019-Mar-17 09:30N 54°26' W 130°38'510.7
2019-Mar-17 09:00N 54°21' W 130°36'714.8
2019-Mar-17 08:30N 54°14' W 130°31'715.0
2019-Mar-17 08:00N 54°08' W 130°24'815.4
2019-Mar-17 07:30N 54°03' W 130°14'815.7
2019-Mar-17 07:00N 53°55' W 130°11'714.8
2019-Mar-17 06:30N 53°51' W 130°02'815.0
2019-Mar-17 05:57N 53°45' W 129°52'9413.6
2019-Mar-16 23:01N 52°24' W 128°29'015.5
2019-Mar-16 23:00N 52°24' W 128°29'815.8
2019-Mar-16 22:30N 52°17' W 128°33'713.1
2019-Mar-16 21:57N 52°15' W 128°21'716.6
2019-Mar-16 21:30N 52°13' W 128°10'4 8.5
2019-Mar-16 21:00N 52°09' W 128°08'510.0
2019-Mar-16 20:31N 52°05' W 128°05'713.5
2019-Mar-16 20:00N 52°01' W 127°56'510.7
2019-Mar-16 19:30N 51°55' W 127°56'5 9.2
2019-Mar-16 19:00N 51°51' W 127°55'510.4
2019-Mar-16 18:30N 51°46' W 127°55'816.1
2019-Mar-16 18:00N 51°38' W 127°53'816.8
2019-Mar-16 17:30N 51°29' W 127°51'816.7
2019-Mar-16 17:00N 51°21' W 127°52'816.6
2019-Mar-16 16:30N 51°13' W 127°52'917.0
2019-Mar-16 16:00N 51°06' W 127°43'917.1
2019-Mar-16 15:30N 50°59' W 127°35'816.8
2019-Mar-16 15:00N 50°55' W 127°24'917.2
2019-Mar-16 14:30N 50°50' W 127°12'917.3
2019-Mar-16 14:00N 50°45' W 127°01'5217.4
2019-Mar-16 11:00N 50°23' W 125°47'1119.5
2019-Mar-16 10:26N 50°21' W 125°30'717.0
2019-Mar-16 10:00N 50°15' W 125°23'917.7
2019-Mar-16 09:30N 50°06' W 125°18'612.7
2019-Mar-16 09:01N 50°01' W 125°13'815.7
2019-Mar-16 08:30N 49°55' W 125°05'918.6
2019-Mar-16 08:00N 49°48' W 124°55'918.7
2019-Mar-16 07:30N 49°42' W 124°45'918.5
2019-Mar-16 07:00N 49°35' W 124°35'918.6
2019-Mar-16 06:30N 49°29' W 124°24'918.2
2019-Mar-16 06:00N 49°24' W 124°12'918.4
2019-Mar-16 05:30N 49°24' W 123°58'917.9
2019-Mar-16 05:00N 49°19' W 123°46'918.5
2019-Mar-16 04:30N 49°13' W 123°35'918.8
2019-Mar-16 04:00N 49°07' W 123°25'918.6
2019-Mar-16 03:30N 49°01' W 123°14'918.1
2019-Mar-16 03:00N 48°55' W 123°04'917.9
2019-Mar-16 02:30N 48°49' W 122°54'917.5
2019-Mar-16 02:00N 48°43' W 122°44'815.2
2019-Mar-16 01:30N 48°39' W 122°34'5 8.5
2019-Mar-16 00:54N 48°43' W 122°31'0 0.0
2019-Mar-16 00:00N 48°43' W 122°31'0 0.0
2019-Mar-15 22:54N 48°43' W 122°31'0 0.0
2019-Mar-15 22:18N 48°43' W 122°31'0 0.0
2019-Mar-15 14:40N 48°43' W 122°31'0 1.5
2019-Mar-15 14:26N 48°44' W 122°31'511.3
2019-Mar-15 14:00N 48°39' W 122°34'510.2
2019-Mar-15 13:31N 48°40' W 122°42'713.3
2019-Mar-15 13:00N 48°45' W 122°48'713.9
2019-Mar-15 12:30N 48°48' W 122°57'714.1
2019-Mar-15 12:00N 48°52' W 123°06'714.2
2019-Mar-15 11:31N 48°57' W 123°14'714.2
2019-Mar-15 11:00N 49°02' W 123°22'714.0
2019-Mar-15 10:30N 49°07' W 123°29'714.1
2019-Mar-15 10:00N 49°12' W 123°36'714.0
2019-Mar-15 09:30N 49°18' W 123°43'713.5
2019-Mar-15 09:00N 49°22' W 123°51'714.0
2019-Mar-15 08:30N 49°23' W 124°02'714.2
2019-Mar-15 08:00N 49°25' W 124°12'711.5
2019-Mar-15 07:24N 49°28' W 124°22'510.8
2019-Mar-15 06:57N 49°31' W 124°28'511.0
2019-Mar-15 06:29N 49°34' W 124°33'511.1
2019-Mar-15 06:00N 49°38' W 124°39'611.0
2019-Mar-15 05:30N 49°42' W 124°45'510.9
2019-Mar-15 05:01N 49°46' W 124°51'611.0
2019-Mar-15 04:30N 49°50' W 124°57'611.0
2019-Mar-15 04:00N 49°53' W 125°04'510.8
2019-Mar-15 03:30N 49°57' W 125°09'715.0
2019-Mar-15 03:00N 50°04' W 125°15'917.6
2019-Mar-15 02:30N 50°11' W 125°22'918.5
2019-Mar-15 02:00N 50°20' W 125°27'3917.6
2019-Mar-14 23:47N 50°30' W 126°26'1215.2
2019-Mar-14 22:58N 50°36' W 126°43'1118.0
2019-Mar-14 22:23N 50°42' W 126°56'718.1
2019-Mar-14 22:00N 50°47' W 127°04'918.0
2019-Mar-14 21:30N 50°52' W 127°16'917.5
2019-Mar-14 21:00N 50°56' W 127°27'816.4
2019-Mar-14 20:30N 51°02' W 127°37'916.9
2019-Mar-14 20:00N 51°07' W 127°49'713.9
2019-Mar-14 19:30N 51°11' W 127°57'917.3
2019-Mar-14 19:01N 51°19' W 127°51'917.4
2019-Mar-14 18:30N 51°28' W 127°50'918.1
2019-Mar-14 18:00N 51°37' W 127°53'918.0
2019-Mar-14 17:30N 51°46' W 127°55'918.0
2019-Mar-14 17:00N 51°55' W 127°56'918.0
2019-Mar-14 16:30N 52°03' W 127°56'816.1
2019-Mar-14 16:00N 52°07' W 128°08'5 8.6
2019-Mar-14 15:27N 52°11' W 128°06'1516.8
2019-Mar-14 14:35N 52°15' W 128°30'116.0
2019-Mar-14 14:30N 52°14' W 128°31'9914.7
2019-Mar-14 07:46N 53°42' W 129°48'518.1
2019-Mar-14 07:30N 53°45' W 129°53'917.8
2019-Mar-14 07:00N 53°52' W 130°04'816.7
2019-Mar-14 06:31N 53°58' W 130°13'816.7
2019-Mar-14 06:01N 54°05' W 130°20'917.6
2019-Mar-14 05:31N 54°13' W 130°29'917.1
2019-Mar-14 05:01N 54°20' W 130°36'917.6
2019-Mar-14 04:30N 54°28' W 130°40'917.8
2019-Mar-14 04:00N 54°37' W 130°44'816.7
2019-Mar-14 03:30N 54°43' W 130°55'  

Dump ship's entire track history